Terminal Aerodrome Forecast
Issued by NWS

Home | Current Version | Previous Version | Text Only | Print | Product List | Glossary On
Versions: 1 2 3 4 5 6 7 8 9 10 11 12 13 14 15 16 17 18 19 20 21 22 23
659
FTUS43 KMQT 240202 AAA
TAFSAW
TAF AMD
KSAW 240202Z 2402/2424 17009KT P6SM BKN150
     FM240300 17006KT P6SM VCSH BKN050 WS010/19030KT
     FM241000 18009KT P6SM BKN040
     FM241600 22009KT P6SM SCT040
     FM241900 26009KT P6SM SCT110
     FM242100 29010G17KT P6SM SCT150=

USA.gov is the U.S. government's official web portal to all federal, state and local government web resources and services.